Time;durP1;ratioP1;P1;durP2;ratioP2;P2;SDS_P1;SDS_P2;PMS_P1;PMS_P2;Temp;Humidity;BMP_temperature;BMP_pressure;BME280_temperature;BME280_humidity;BME280_pressure;Samples;Min_cycle;Max_cycle;Signal;HPM_P1;HPM_P2
2021/03/02 00:00:06;;;;;;;30.27;17.70;;;5.00;99.90;;;;;;5093470;28;20040;-68
2021/03/02 00:02:32;;;;;;;29.90;17.42;;;5.00;99.90;;;;;;5079189;28;20044;-68
2021/03/02 00:04:59;;;;;;;34.28;18.30;;;5.00;99.90;;;;;;5085591;28;20041;-68
2021/03/02 00:07:27;;;;;;;28.73;16.75;;;5.10;99.90;;;;;;5077605;28;20063;-68
2021/03/02 00:09:54;;;;;;;30.85;18.92;;;5.00;99.90;;;;;;5084442;28;20083;-68
2021/03/02 00:12:26;;;;;;;31.57;18.50;;;5.00;99.90;;;;;;5075844;28;20048;-69
2021/03/02 00:14:53;;;;;;;32.63;18.92;;;5.00;99.90;;;;;;5073322;28;20087;-68
2021/03/02 00:17:43;;;;;;;32.13;18.35;;;4.90;99.90;;;;;;5083466;28;20172;-68
2021/03/02 00:20:14;;;;;;;28.65;18.42;;;4.90;99.90;;;;;;5076582;28;20055;-68
2021/03/02 00:23:07;;;;;;;34.08;18.88;;;4.90;99.90;;;;;;5077434;28;20131;-68
2021/03/02 00:25:43;;;;;;;29.73;17.77;;;4.90;99.90;;;;;;5072300;28;20518;-68
2021/03/02 00:28:10;;;;;;;30.08;18.75;;;4.80;99.90;;;;;;5078573;28;20502;-68
2021/03/02 00:30:38;;;;;;;30.88;17.70;;;4.80;99.90;;;;;;5089641;28;20584;-68
2021/03/02 00:33:06;;;;;;;32.03;19.33;;;4.70;99.90;;;;;;5088551;28;20485;-68
2021/03/02 00:35:34;;;;;;;33.00;18.90;;;4.70;99.90;;;;;;5079411;28;20048;-68
2021/03/02 00:38:00;;;;;;;34.38;19.38;;;4.70;99.90;;;;;;5072612;28;20048;-68
2021/03/02 00:40:27;;;;;;;30.27;18.33;;;4.70;99.90;;;;;;5079558;28;20048;-68
2021/03/02 00:42:54;;;;;;;30.23;18.02;;;4.70;99.90;;;;;;5074721;28;20048;-68
2021/03/02 00:45:21;;;;;;;33.67;18.48;;;4.60;99.90;;;;;;5077451;28;20427;-68
2021/03/02 00:47:52;;;;;;;26.92;16.92;;;4.60;99.90;;;;;;5081489;28;20048;-68
2021/03/02 00:50:20;;;;;;;31.98;18.48;;;4.70;99.90;;;;;;5080442;28;20097;-68
2021/03/02 00:52:47;;;;;;;34.20;17.80;;;4.70;99.90;;;;;;5085837;28;20052;-68
2021/03/02 00:55:14;;;;;;;28.38;17.48;;;4.70;99.90;;;;;;5084582;28;20052;-68
2021/03/02 00:57:41;;;;;;;26.85;17.90;;;4.60;99.90;;;;;;5090781;28;20105;-68
2021/03/02 01:00:09;;;;;;;33.08;18.38;;;4.50;99.90;;;;;;5092844;28;20040;-68
2021/03/02 01:02:36;;;;;;;30.33;18.08;;;4.50;99.90;;;;;;5086051;28;20048;-68
2021/03/02 01:05:07;;;;;;;31.83;19.23;;;4.40;99.90;;;;;;5088193;28;20036;-68
2021/03/02 01:07:34;;;;;;;31.15;17.50;;;4.30;99.90;;;;;;5091864;28;20498;-68
2021/03/02 01:10:10;;;;;;;34.47;19.00;;;4.30;99.90;;;;;;5085867;28;20126;-68
2021/03/02 01:12:36;;;;;;;32.10;18.15;;;4.20;99.90;;;;;;5085978;28;20127;-64
2021/03/02 01:15:05;;;;;;;31.35;18.30;;;4.20;99.90;;;;;;5085487;28;20112;-66
2021/03/02 01:17:32;;;;;;;31.60;18.33;;;4.10;99.90;;;;;;5085511;28;20066;-65
2021/03/02 01:19:59;;;;;;;34.75;18.23;;;4.10;99.90;;;;;;5085787;28;20472;-65
2021/03/02 01:22:26;;;;;;;33.25;18.48;;;4.10;99.90;;;;;;5087115;28;20050;-65
2021/03/02 01:24:52;;;;;;;37.22;19.45;;;4.10;99.90;;;;;;5087620;28;20048;-65
2021/03/02 01:27:19;;;;;;;35.58;19.15;;;4.00;99.90;;;;;;5085654;28;20050;-65
2021/03/02 01:29:45;;;;;;;30.55;18.33;;;4.00;99.90;;;;;;5088403;28;20051;-65
2021/03/02 01:32:12;;;;;;;31.90;18.85;;;4.00;99.90;;;;;;5092101;28;20143;-66
2021/03/02 01:34:39;;;;;;;35.15;19.27;;;4.00;99.90;;;;;;5091828;28;20563;-65
2021/03/02 01:37:05;;;;;;;39.65;19.80;;;4.00;99.90;;;;;;5082380;28;20567;-65
2021/03/02 01:39:32;;;;;;;33.28;19.30;;;4.00;99.90;;;;;;5083320;28;20106;-67
2021/03/02 01:42:00;;;;;;;33.65;20.08;;;4.10;99.90;;;;;;5090123;28;20040;-66
2021/03/02 01:44:28;;;;;;;36.22;20.38;;;4.10;99.90;;;;;;5075514;28;20501;-66
2021/03/02 01:46:54;;;;;;;34.67;19.00;;;4.10;99.90;;;;;;5077973;28;20075;-66
2021/03/02 01:49:22;;;;;;;33.70;20.23;;;4.10;99.90;;;;;;5082063;28;20171;-66
2021/03/02 01:51:49;;;;;;;34.88;19.63;;;4.10;99.90;;;;;;5081661;28;20218;-65
2021/03/02 01:54:16;;;;;;;37.22;20.60;;;4.10;99.90;;;;;;5092258;28;20112;-66
2021/03/02 01:56:44;;;;;;;39.95;20.88;;;4.10;99.90;;;;;;5081905;28;20051;-67
2021/03/02 01:59:12;;;;;;;35.75;20.45;;;4.10;99.90;;;;;;5082174;28;20131;-66
2021/03/02 02:01:39;;;;;;;35.78;20.48;;;4.10;99.90;;;;;;5082960;28;20418;-65
2021/03/02 02:04:32;;;;;;;34.63;20.13;;;4.10;99.90;;;;;;5080034;28;20044;-65
2021/03/02 02:07:03;;;;;;;38.70;20.27;;;4.10;99.90;;;;;;5079986;28;20048;-66
2021/03/02 02:09:50;;;;;;;38.47;21.00;;;4.00;99.90;;;;;;5081693;28;20048;-65
2021/03/02 02:12:36;;;;;;;36.17;20.30;;;4.00;99.90;;;;;;5081252;28;20057;-66
2021/03/02 02:15:03;;;;;;;38.75;20.92;;;3.90;99.90;;;;;;5081643;28;20139;-65
2021/03/02 02:17:52;;;;;;;45.25;21.52;;;3.80;99.90;;;;;;5081288;28;20490;-65
2021/03/02 02:20:37;;;;;;;36.00;20.92;;;3.80;99.90;;;;;;5069872;28;20667;-65
2021/03/02 02:23:19;;;;;;;37.22;20.92;;;3.70;99.90;;;;;;5085336;28;20059;-65
2021/03/02 02:26:00;;;;;;;36.20;19.63;;;3.60;99.90;;;;;;5076250;28;20049;-65
2021/03/02 02:28:29;;;;;;;35.20;20.48;;;3.60;99.90;;;;;;5091637;28;20072;-65
2021/03/02 02:30:58;;;;;;;41.05;21.05;;;3.50;99.90;;;;;;5084876;28;20052;-66
2021/03/02 02:33:31;;;;;;;36.35;19.80;;;3.50;99.90;;;;;;5088930;28;20056;-65
2021/03/02 02:36:00;;;;;;;39.72;21.75;;;3.50;99.90;;;;;;5075190;28;20056;-66
2021/03/02 02:38:28;;;;;;;36.20;20.75;;;3.40;99.90;;;;;;5078533;28;20040;-65
2021/03/02 02:40:55;;;;;;;39.90;21.33;;;3.40;99.90;;;;;;5083953;28;20186;-66
2021/03/02 02:43:23;;;;;;;43.50;22.45;;;3.40;99.90;;;;;;5085873;28;20048;-66
2021/03/02 02:45:51;;;;;;;43.90;22.70;;;3.30;99.90;;;;;;5086704;28;20044;-65
2021/03/02 02:48:18;;;;;;;40.17;21.85;;;3.30;99.90;;;;;;5074851;28;20048;-65
2021/03/02 02:50:46;;;;;;;41.25;22.30;;;3.30;99.90;;;;;;5086583;28;20141;-66
2021/03/02 02:53:14;;;;;;;43.47;22.23;;;3.20;99.90;;;;;;5074704;28;20049;-65
2021/03/02 02:55:44;;;;;;;42.83;22.05;;;3.20;99.90;;;;;;5088370;28;20074;-65
2021/03/02 02:58:14;;;;;;;42.90;22.33;;;3.20;99.90;;;;;;5077884;28;20049;-64
2021/03/02 03:00:43;;;;;;;40.13;21.67;;;3.10;99.90;;;;;;5086225;28;20074;-65
2021/03/02 03:03:16;;;;;;;47.17;21.65;;;3.10;99.90;;;;;;5078889;28;20127;-65
2021/03/02 03:05:47;;;;;;;45.22;23.00;;;3.10;99.90;;;;;;5084613;28;20050;-66
2021/03/02 03:08:23;;;;;;;43.15;23.35;;;3.10;99.90;;;;;;5076422;28;20390;-66
2021/03/02 03:10:51;;;;;;;41.10;22.23;;;3.00;99.90;;;;;;5078090;28;20056;-65
2021/03/02 03:13:20;;;;;;;45.47;22.13;;;3.00;99.90;;;;;;5073578;28;20045;-65
2021/03/02 03:15:59;;;;;;;41.65;22.05;;;2.90;99.90;;;;;;5077762;28;20043;-65
2021/03/02 03:18:31;;;;;;;45.72;22.63;;;2.90;99.90;;;;;;5070202;28;20628;-67
2021/03/02 03:20:59;;;;;;;44.90;24.02;;;2.90;99.90;;;;;;5069986;28;20041;-67
2021/03/02 03:23:27;;;;;;;41.85;21.75;;;2.80;99.90;;;;;;5073417;28;20043;-67
2021/03/02 03:25:54;;;;;;;48.53;24.27;;;2.80;99.90;;;;;;5084625;28;20391;-67
2021/03/02 03:28:23;;;;;;;42.53;21.92;;;2.80;99.90;;;;;;5076077;28;20083;-67
2021/03/02 03:30:50;;;;;;;44.00;22.73;;;2.80;99.90;;;;;;5080205;28;20485;-68
2021/03/02 03:33:19;;;;;;;44.58;23.75;;;2.70;99.90;;;;;;5077361;28;20056;-69
2021/03/02 03:35:46;;;;;;;47.67;24.50;;;2.70;99.90;;;;;;5076948;28;20048;-69
2021/03/02 03:38:12;;;;;;;46.42;23.90;;;2.60;99.90;;;;;;5074265;28;20439;-69
2021/03/02 03:40:38;;;;;;;46.30;24.85;;;2.60;99.90;;;;;;5084865;28;20589;-69
2021/03/02 03:43:05;;;;;;;43.90;23.45;;;2.60;99.90;;;;;;5077651;28;20462;-69
2021/03/02 03:45:32;;;;;;;49.78;24.52;;;2.60;99.90;;;;;;5078628;28;20051;-69
2021/03/02 03:47:58;;;;;;;45.30;24.30;;;2.50;99.90;;;;;;5082013;28;20050;-68
2021/03/02 03:50:25;;;;;;;49.45;23.30;;;2.50;99.90;;;;;;5082022;28;20071;-67
2021/03/02 03:52:56;;;;;;;49.22;24.55;;;2.50;99.90;;;;;;5076054;28;20052;-68
2021/03/02 03:55:29;;;;;;;43.72;23.52;;;2.50;99.90;;;;;;5072251;28;20070;-65
2021/03/02 03:57:56;;;;;;;49.55;24.33;;;2.50;99.90;;;;;;5069450;28;20036;-66
2021/03/02 04:00:23;;;;;;;50.78;24.40;;;2.40;99.90;;;;;;5078284;28;20051;-66
2021/03/02 04:02:50;;;;;;;51.13;24.25;;;2.40;99.90;;;;;;5074568;28;20052;-66
2021/03/02 04:05:19;;;;;;;47.40;23.50;;;2.40;99.90;;;;;;5076702;28;20127;-66
2021/03/02 04:07:47;;;;;;;51.75;25.70;;;2.40;99.90;;;;;;5086602;28;20509;-66
2021/03/02 04:10:15;;;;;;;51.80;25.55;;;2.40;99.90;;;;;;5076205;28;20048;-66
2021/03/02 04:12:44;;;;;;;47.75;24.35;;;2.40;99.90;;;;;;5076826;28;20051;-66
2021/03/02 04:15:27;;;;;;;50.80;23.98;;;2.30;99.90;;;;;;5087110;28;20048;-65
2021/03/02 04:17:57;;;;;;;48.97;24.13;;;2.30;99.90;;;;;;5087794;28;20080;-66
2021/03/02 04:20:25;;;;;;;51.38;24.83;;;2.30;99.90;;;;;;5087374;28;20051;-66
2021/03/02 04:22:56;;;;;;;46.70;23.52;;;2.30;99.90;;;;;;5088034;28;20725;-66
2021/03/02 04:25:25;;;;;;;50.88;25.40;;;2.20;99.90;;;;;;5081047;28;20862;-66
2021/03/02 04:27:52;;;;;;;49.55;25.88;;;2.20;99.90;;;;;;5076980;28;20502;-66
2021/03/02 04:30:19;;;;;;;51.83;25.45;;;2.20;99.90;;;;;;5077646;28;20522;-66
2021/03/02 04:32:45;;;;;;;50.72;24.98;;;2.10;99.90;;;;;;5086523;28;20045;-69
2021/03/02 04:35:13;;;;;;;48.88;24.05;;;2.10;99.90;;;;;;5075718;28;20388;-69
2021/03/02 04:37:39;;;;;;;47.70;24.75;;;2.10;99.90;;;;;;5076934;28;20044;-69
2021/03/02 04:40:06;;;;;;;50.15;24.38;;;2.10;99.90;;;;;;5086004;28;20055;-69
2021/03/02 04:42:33;;;;;;;52.90;26.17;;;2.10;99.90;;;;;;5084654;28;20048;-69
2021/03/02 04:45:00;;;;;;;55.92;26.48;;;2.10;99.90;;;;;;5090126;28;20040;-69
2021/03/02 04:47:26;;;;;;;51.70;26.05;;;2.10;99.90;;;;;;5083044;28;20059;-69
2021/03/02 04:49:53;;;;;;;53.10;26.23;;;2.10;99.90;;;;;;5082388;28;20062;-69
2021/03/02 04:52:20;;;;;;;52.65;25.58;;;2.10;99.90;;;;;;5077854;28;20048;-69
2021/03/02 04:54:46;;;;;;;54.85;27.55;;;2.10;99.90;;;;;;5091574;28;20455;-69
2021/03/02 04:57:12;;;;;;;52.35;26.77;;;2.20;99.90;;;;;;5089667;28;20055;-69
2021/03/02 04:59:39;;;;;;;59.38;26.85;;;2.20;99.90;;;;;;5087200;28;20068;-69
2021/03/02 05:02:05;;;;;;;57.10;26.92;;;2.20;99.90;;;;;;5093056;28;20527;-69
2021/03/02 05:04:32;;;;;;;53.85;26.35;;;2.20;99.90;;;;;;5090805;28;20467;-69
2021/03/02 05:06:59;;;;;;;54.13;27.50;;;2.30;99.90;;;;;;5084550;28;20051;-69
2021/03/02 05:09:25;;;;;;;51.35;25.05;;;2.30;99.90;;;;;;5090045;28;20049;-69
2021/03/02 05:11:53;;;;;;;53.10;25.85;;;2.30;99.90;;;;;;5082406;28;20094;-66
2021/03/02 05:14:20;;;;;;;53.45;25.55;;;2.30;99.90;;;;;;5086974;28;20509;-66
2021/03/02 05:16:47;;;;;;;54.00;25.50;;;2.20;99.90;;;;;;5084719;28;20052;-67
2021/03/02 05:19:14;;;;;;;54.28;26.27;;;2.20;99.90;;;;;;5091723;28;20402;-66
2021/03/02 05:21:40;;;;;;;57.85;27.83;;;2.20;99.90;;;;;;5082054;28;20048;-67
2021/03/02 05:24:07;;;;;;;56.63;25.63;;;2.20;99.90;;;;;;5082166;28;20048;-67
2021/03/02 05:26:33;;;;;;;57.90;26.27;;;2.30;99.90;;;;;;5076833;28;20040;-67
2021/03/02 05:29:00;;;;;;;47.67;24.58;;;2.20;99.90;;;;;;5091310;28;20044;-67
2021/03/02 05:31:27;;;;;;;52.30;26.58;;;2.20;99.90;;;;;;5086385;28;20060;-67
2021/03/02 05:33:54;;;;;;;54.08;25.33;;;2.20;99.90;;;;;;5082049;28;20048;-67
2021/03/02 05:36:24;;;;;;;54.22;26.55;;;2.20;99.90;;;;;;5084380;28;20044;-67
2021/03/02 05:38:51;;;;;;;52.10;26.15;;;2.10;99.90;;;;;;5088850;28;20132;-67
2021/03/02 05:41:18;;;;;;;54.85;25.92;;;2.10;99.90;;;;;;5086404;28;20134;-66
2021/03/02 05:43:45;;;;;;;51.53;25.75;;;2.10;99.90;;;;;;5079124;28;20498;-67
2021/03/02 05:46:31;;;;;;;55.10;26.45;;;2.00;99.90;;;;;;5080480;28;20134;-67
2021/03/02 05:48:58;;;;;;;56.55;25.42;;;2.00;99.90;;;;;;5086136;28;20050;-67
2021/03/02 05:51:24;;;;;;;52.30;26.40;;;1.90;99.90;;;;;;5086897;28;20071;-66
2021/03/02 05:53:51;;;;;;;55.55;26.83;;;1.90;99.90;;;;;;5088197;28;20422;-67
2021/03/02 05:56:17;;;;;;;59.72;26.10;;;1.90;99.90;;;;;;5086813;28;20360;-67
2021/03/02 05:58:44;;;;;;;60.15;27.48;;;1.80;99.90;;;;;;5080521;28;20044;-67
2021/03/02 06:01:10;;;;;;;55.80;27.17;;;1.80;99.90;;;;;;5085518;28;20044;-68
2021/03/02 06:03:38;;;;;;;58.85;27.75;;;1.80;99.90;;;;;;5076467;28;20056;-66
2021/03/02 06:06:05;;;;;;;60.10;27.58;;;1.80;99.90;;;;;;5083729;28;20186;-66
2021/03/02 06:08:32;;;;;;;55.50;27.00;;;1.70;99.90;;;;;;5084097;28;20056;-67
2021/03/02 06:11:22;;;;;;;57.70;26.92;;;1.80;99.90;;;;;;5091142;28;20052;-67
2021/03/02 06:13:49;;;;;;;56.55;26.77;;;1.70;99.90;;;;;;5079378;28;20054;-67
2021/03/02 06:16:15;;;;;;;56.30;27.25;;;1.80;99.90;;;;;;5088654;28;20053;-66
2021/03/02 06:18:48;;;;;;;55.35;26.58;;;1.80;99.90;;;;;;5085066;28;20052;-66
2021/03/02 06:21:15;;;;;;;52.00;25.73;;;1.80;99.90;;;;;;5079938;28;20113;-67
2021/03/02 06:24:00;;;;;;;59.65;29.02;;;1.90;99.90;;;;;;5081858;28;20056;-67
2021/03/02 06:26:27;;;;;;;60.20;28.70;;;1.90;99.90;;;;;;5076060;28;20040;-66
2021/03/02 06:29:03;;;;;;;61.83;28.98;;;2.00;99.90;;;;;;5074489;28;20055;-66
2021/03/02 06:31:42;;;;;;;55.83;28.25;;;2.10;99.90;;;;;;5085883;28;20474;-66
2021/03/02 06:34:21;;;;;;;56.88;26.67;;;2.20;99.90;;;;;;5084624;28;20051;-67
2021/03/02 06:36:53;;;;;;;59.97;28.35;;;2.30;99.90;;;;;;5090131;28;20048;-67
2021/03/02 06:39:39;;;;;;;56.05;27.52;;;2.40;99.90;;;;;;5076125;28;20423;-67
2021/03/02 06:42:17;;;;;;;60.35;27.50;;;2.50;99.90;;;;;;5076030;28;20043;-66
2021/03/02 06:44:47;;;;;;;57.22;26.52;;;2.70;99.90;;;;;;5074991;28;20057;-66
2021/03/02 06:47:35;;;;;;;54.22;26.40;;;2.80;99.90;;;;;;5073374;28;20051;-66
2021/03/02 06:50:19;;;;;;;54.88;25.98;;;3.00;99.90;;;;;;5083333;28;20506;-66
2021/03/02 06:52:46;;;;;;;56.80;27.63;;;3.00;99.90;;;;;;5078748;28;20051;-67
2021/03/02 06:55:15;;;;;;;55.45;26.45;;;3.10;99.90;;;;;;5090909;28;20044;-66
2021/03/02 06:57:43;;;;;;;55.53;26.48;;;3.30;99.90;;;;;;5088386;28;20044;-66
2021/03/02 07:00:11;;;;;;;54.85;26.60;;;3.40;99.90;;;;;;5087780;28;20047;-66
2021/03/02 07:02:38;;;;;;;53.20;27.55;;;3.50;99.90;;;;;;5087456;28;20048;-67
2021/03/02 07:05:06;;;;;;;56.17;26.98;;;3.60;99.90;;;;;;5087342;28;20407;-67
2021/03/02 07:07:33;;;;;;;55.65;27.10;;;3.70;99.90;;;;;;5087985;28;20059;-66
2021/03/02 07:10:01;;;;;;;57.95;27.60;;;3.80;99.90;;;;;;5090380;28;20043;-66
2021/03/02 07:12:36;;;;;;;54.90;27.92;;;3.90;99.90;;;;;;5088245;28;20500;-66
2021/03/02 07:15:10;;;;;;;58.15;28.90;;;4.00;99.90;;;;;;5087757;28;20056;-66
2021/03/02 07:17:44;;;;;;;55.40;27.50;;;4.10;99.90;;;;;;5087352;28;20501;-67
2021/03/02 07:20:15;;;;;;;56.58;28.08;;;4.10;99.90;;;;;;5086287;28;20116;-66
2021/03/02 07:22:48;;;;;;;55.15;28.30;;;4.10;99.90;;;;;;5087587;28;20488;-65
2021/03/02 07:25:18;;;;;;;47.25;26.17;;;4.20;99.90;;;;;;5086618;28;20044;-66
2021/03/02 07:27:49;;;;;;;50.15;26.25;;;4.30;99.90;;;;;;5084333;28;20459;-65
2021/03/02 07:30:16;;;;;;;51.85;26.52;;;4.30;99.90;;;;;;5087221;28;20051;-66
2021/03/02 07:32:47;;;;;;;49.35;25.88;;;4.40;99.90;;;;;;5086660;28;20474;-66
2021/03/02 07:35:23;;;;;;;54.08;26.38;;;4.50;99.90;;;;;;5088855;28;20079;-66
2021/03/02 07:37:49;;;;;;;54.22;28.17;;;4.50;99.90;;;;;;5084447;28;20047;-66
2021/03/02 07:40:20;;;;;;;51.47;26.73;;;4.60;99.90;;;;;;5084602;28;20044;-67
2021/03/02 07:42:47;;;;;;;52.70;25.60;;;4.70;99.90;;;;;;5079911;28;20049;-65
2021/03/02 07:45:18;;;;;;;49.85;25.65;;;4.80;99.90;;;;;;5087153;28;20040;-65
2021/03/02 07:48:02;;;;;;;51.38;25.10;;;4.80;99.90;;;;;;5087852;28;20101;-66
2021/03/02 07:50:31;;;;;;;57.35;26.35;;;4.90;99.90;;;;;;5088482;28;20043;-66
2021/03/02 07:53:16;;;;;;;56.58;29.73;;;5.00;99.90;;;;;;5079561;28;20123;-66
2021/03/02 07:55:44;;;;;;;58.85;28.40;;;5.00;99.90;;;;;;5085803;28;20052;-66
2021/03/02 07:58:19;;;;;;;51.78;25.85;;;5.10;99.90;;;;;;5089594;28;20051;-65
2021/03/02 08:00:50;;;;;;;51.28;26.38;;;5.20;99.90;;;;;;5087323;28;20050;-66
2021/03/02 08:03:17;;;;;;;51.63;25.98;;;5.30;99.90;;;;;;5081255;28;20052;-66
2021/03/02 08:05:45;;;;;;;47.75;25.48;;;5.30;99.90;;;;;;5081358;28;20117;-65
2021/03/02 08:08:24;;;;;;;51.35;27.50;;;5.40;99.90;;;;;;5083581;28;20055;-66
2021/03/02 08:10:54;;;;;;;54.08;29.52;;;5.50;99.90;;;;;;5084259;28;20778;-65
2021/03/02 08:13:38;;;;;;;51.97;27.38;;;5.60;99.90;;;;;;5087961;28;20048;-67
2021/03/02 08:16:09;;;;;;;51.55;27.27;;;5.70;99.90;;;;;;5079547;28;20132;-65
2021/03/02 08:18:41;;;;;;;52.13;27.20;;;5.80;99.90;;;;;;5077015;28;20056;-66
2021/03/02 08:21:14;;;;;;;50.38;26.85;;;5.80;99.90;;;;;;5080329;28;20413;-66
2021/03/02 08:23:49;;;;;;;48.70;25.30;;;5.90;99.90;;;;;;5078964;28;20128;-66
2021/03/02 08:26:30;;;;;;;47.22;25.67;;;6.10;99.90;;;;;;5086334;28;20168;-66
2021/03/02 08:29:07;;;;;;;54.28;29.90;;;6.20;99.90;;;;;;5083580;28;20048;-66
2021/03/02 08:31:35;;;;;;;56.03;30.77;;;6.30;99.90;;;;;;5078819;28;20048;-66
2021/03/02 08:34:05;;;;;;;50.83;26.33;;;6.40;99.90;;;;;;5087711;28;20044;-66
2021/03/02 08:36:33;;;;;;;47.13;25.50;;;6.60;99.90;;;;;;5081230;28;20382;-66
2021/03/02 08:38:59;;;;;;;46.80;24.73;;;6.70;99.90;;;;;;5090664;28;20047;-66
2021/03/02 08:41:31;;;;;;;42.65;25.23;;;6.80;99.90;;;;;;5092972;28;20054;-65
2021/03/02 08:43:59;;;;;;;41.88;23.67;;;6.90;99.90;;;;;;5085143;28;20075;-66
2021/03/02 08:46:28;;;;;;;48.70;25.50;;;7.00;99.90;;;;;;5078049;28;20049;-66
2021/03/02 08:48:55;;;;;;;45.00;25.02;;;7.10;99.90;;;;;;5076967;28;20052;-66
2021/03/02 08:51:24;;;;;;;45.08;25.10;;;7.20;99.90;;;;;;5085015;28;20056;-66
2021/03/02 08:53:52;;;;;;;46.08;25.70;;;7.40;99.90;;;;;;5081995;28;20040;-66
2021/03/02 08:56:21;;;;;;;47.67;26.05;;;7.50;99.90;;;;;;5087408;28;20054;-67
2021/03/02 08:58:56;;;;;;;44.65;24.33;;;7.60;99.90;;;;;;5086484;28;20152;-66
2021/03/02 09:01:22;;;;;;;46.20;25.92;;;7.70;99.90;;;;;;5081707;28;20384;-66
2021/03/02 09:03:50;;;;;;;38.42;23.90;;;7.80;99.90;;;;;;5078345;28;20048;-67
2021/03/02 09:06:19;;;;;;;49.00;26.30;;;8.00;99.90;;;;;;5090713;28;20110;-65
2021/03/02 09:09:01;;;;;;;44.22;24.60;;;8.10;99.90;;;;;;5083773;28;20072;-66
2021/03/02 09:11:38;;;;;;;46.42;24.05;;;8.20;99.90;;;;;;5089937;28;20044;-66
2021/03/02 09:14:11;;;;;;;47.78;27.95;;;8.30;99.90;;;;;;5091526;28;20520;-66
2021/03/02 09:16:43;;;;;;;39.80;23.58;;;8.40;99.90;;;;;;5072716;28;20053;-66
2021/03/02 09:19:30;;;;;;;37.72;23.10;;;8.60;99.90;;;;;;5086532;28;20494;-67
2021/03/02 09:21:58;;;;;;;36.17;21.33;;;8.80;99.90;;;;;;5083952;28;20044;-66
2021/03/02 09:24:39;;;;;;;38.60;22.90;;;8.90;99.90;;;;;;5087356;28;20475;-66
2021/03/02 09:27:07;;;;;;;39.45;23.05;;;9.00;99.90;;;;;;5090741;28;20399;-66
2021/03/02 09:29:38;;;;;;;45.50;24.67;;;9.10;99.90;;;;;;5090743;28;20040;-67
2021/03/02 09:32:06;;;;;;;47.03;25.83;;;9.20;99.90;;;;;;5090421;28;20076;-67
2021/03/02 09:34:36;;;;;;;40.20;24.25;;;9.30;99.90;;;;;;5090972;28;20080;-67
2021/03/02 09:37:10;;;;;;;46.42;27.75;;;9.50;99.90;;;;;;5085880;28;20052;-67
2021/03/02 09:39:38;;;;;;;43.35;24.95;;;9.60;99.90;;;;;;5088286;28;20395;-66
2021/03/02 09:42:20;;;;;;;41.42;24.17;;;9.80;99.90;;;;;;5085651;28;20044;-66
2021/03/02 09:44:52;;;;;;;36.25;22.80;;;9.90;99.90;;;;;;5090297;28;20048;-66
2021/03/02 09:47:35;;;;;;;38.83;24.33;;;10.10;99.90;;;;;;5090629;28;20482;-66
2021/03/02 09:50:10;;;;;;;35.47;22.10;;;10.30;99.90;;;;;;5089239;28;20052;-67
2021/03/02 09:52:50;;;;;;;35.78;22.30;;;10.30;99.90;;;;;;5083366;28;20049;-66
2021/03/02 09:55:23;;;;;;;33.65;21.67;;;10.50;99.90;;;;;;5071047;28;20058;-66
2021/03/02 09:58:10;;;;;;;39.72;22.65;;;10.60;99.90;;;;;;5085292;28;20041;-66
2021/03/02 10:00:46;;;;;;;32.53;20.75;;;10.70;99.90;;;;;;5076516;28;20486;-66
2021/03/02 10:03:37;;;;;;;35.33;21.85;;;10.90;99.90;;;;;;5085064;28;20062;-66
2021/03/02 10:06:07;;;;;;;35.70;21.73;;;11.10;99.90;;;;;;5080397;28;20052;-65
2021/03/02 10:08:38;;;;;;;31.55;21.10;;;11.20;99.90;;;;;;5085235;28;20127;-66
2021/03/02 10:11:11;;;;;;;34.30;21.80;;;11.40;99.90;;;;;;5084549;28;20135;-66
2021/03/02 10:13:40;;;;;;;32.25;21.00;;;11.50;99.90;;;;;;5079350;28;20052;-67
2021/03/02 10:16:24;;;;;;;32.97;20.52;;;11.60;99.90;;;;;;5071921;28;20056;-67
2021/03/02 10:18:54;;;;;;;31.85;20.40;;;11.70;99.90;;;;;;5071448;28;20084;-66
2021/03/02 10:21:26;;;;;;;32.30;19.88;;;11.90;99.90;;;;;;5074139;28;20040;-66
2021/03/02 10:23:56;;;;;;;30.77;19.90;;;12.00;99.90;;;;;;5076414;28;20263;-65
2021/03/02 10:26:38;;;;;;;25.92;18.90;;;12.20;99.90;;;;;;5079019;28;20620;-66
2021/03/02 10:29:06;;;;;;;26.73;19.63;;;12.50;99.90;;;;;;5071178;28;20093;-66
2021/03/02 10:31:34;;;;;;;28.67;20.00;;;12.70;99.90;;;;;;5081425;28;20056;-67
2021/03/02 10:34:05;;;;;;;32.85;22.65;;;12.90;99.90;;;;;;5088266;28;20440;-67
2021/03/02 10:36:34;;;;;;;33.63;23.70;;;13.10;99.90;;;;;;5086341;28;20048;-66
2021/03/02 10:39:04;;;;;;;29.83;21.17;;;13.30;99.90;;;;;;5082960;28;20059;-66
2021/03/02 10:41:31;;;;;;;27.92;20.25;;;13.50;99.90;;;;;;5077253;28;20048;-67
2021/03/02 10:43:58;;;;;;;23.15;18.33;;;13.60;99.90;;;;;;5078570;28;20048;-67
2021/03/02 10:46:26;;;;;;;28.75;19.80;;;13.80;99.90;;;;;;5079272;28;20053;-67
2021/03/02 10:48:53;;;;;;;28.40;19.23;;;14.00;99.90;;;;;;5088485;28;20051;-67
2021/03/02 10:51:21;;;;;;;27.67;19.52;;;14.20;99.90;;;;;;5084432;28;20044;-67
2021/03/02 10:53:47;;;;;;;25.98;18.30;;;14.40;99.90;;;;;;5076276;28;20074;-67
2021/03/02 10:56:14;;;;;;;25.02;18.27;;;14.60;99.90;;;;;;5073870;28;20048;-68
2021/03/02 10:58:42;;;;;;;24.38;18.10;;;14.80;99.90;;;;;;5081796;28;20047;-68
2021/03/02 11:01:09;;;;;;;35.10;19.80;;;15.00;99.90;;;;;;5077179;28;20047;-66
2021/03/02 11:03:35;;;;;;;27.50;18.23;;;15.00;99.90;;;;;;5082824;28;20120;-66
2021/03/02 11:06:02;;;;;;;22.80;17.42;;;15.20;99.90;;;;;;5075186;28;20371;-65
2021/03/02 11:08:29;;;;;;;25.55;18.98;;;15.50;99.90;;;;;;5084056;28;20153;-65
2021/03/02 11:10:55;;;;;;;25.20;16.98;;;15.70;98.80;;;;;;5089246;28;20505;-67
2021/03/02 11:13:22;;;;;;;20.92;16.23;;;16.00;98.80;;;;;;5083532;28;20051;-65
2021/03/02 11:15:49;;;;;;;32.28;23.63;;;16.30;97.00;;;;;;5085323;28;20048;-65
2021/03/02 11:18:15;;;;;;;20.10;16.40;;;16.50;96.20;;;;;;5084917;28;20051;-66
2021/03/02 11:20:43;;;;;;;22.65;16.88;;;16.70;94.30;;;;;;5077189;28;20491;-64
2021/03/02 11:23:12;;;;;;;20.13;15.32;;;16.90;93.70;;;;;;5078052;28;20517;-65
2021/03/02 11:25:40;;;;;;;21.13;15.93;;;17.00;92.70;;;;;;5087904;28;20040;-66
2021/03/02 11:28:08;;;;;;;18.77;14.75;;;17.10;91.30;;;;;;5083386;28;20499;-66
2021/03/02 11:30:35;;;;;;;23.88;18.95;;;16.90;90.40;;;;;;5089700;28;20517;-64
2021/03/02 11:33:02;;;;;;;23.45;17.50;;;17.20;91.20;;;;;;5084319;28;20054;-66
2021/03/02 11:35:29;;;;;;;18.00;16.10;;;17.50;90.40;;;;;;5085016;28;20054;-66
2021/03/02 11:37:56;;;;;;;22.65;16.75;;;17.80;88.70;;;;;;5075778;28;20120;-64
2021/03/02 11:40:23;;;;;;;19.65;15.25;;;18.10;88.30;;;;;;5083441;28;20048;-65
2021/03/02 11:42:52;;;;;;;18.55;15.55;;;18.20;85.90;;;;;;5079089;28;20410;-66
2021/03/02 11:45:21;;;;;;;18.17;15.18;;;18.20;84.00;;;;;;5082508;28;20320;-66
2021/03/02 11:47:48;;;;;;;18.98;15.80;;;18.30;84.20;;;;;;5089935;28;20055;-65
2021/03/02 11:50:16;;;;;;;19.45;15.85;;;18.60;84.50;;;;;;5084285;28;20051;-66
2021/03/02 11:52:43;;;;;;;20.42;16.25;;;19.00;83.40;;;;;;5083865;28;20118;-65
2021/03/02 11:55:11;;;;;;;18.02;15.02;;;19.20;82.60;;;;;;5088095;28;20502;-65
2021/03/02 11:57:37;;;;;;;19.08;14.82;;;19.50;81.50;;;;;;5088963;28;20040;-65
2021/03/02 12:00:10;;;;;;;16.77;14.98;;;19.80;79.30;;;;;;5084687;28;20052;-66
2021/03/02 12:02:36;;;;;;;17.45;13.32;;;20.10;77.00;;;;;;5074735;28;20052;-65
2021/03/02 12:05:04;;;;;;;16.65;12.18;;;20.30;73.60;;;;;;5087721;28;20543;-65
2021/03/02 12:07:31;;;;;;;13.00;11.63;;;20.30;71.70;;;;;;5083094;28;20040;-65
2021/03/02 12:09:57;;;;;;;12.70;11.40;;;20.50;70.50;;;;;;5077137;28;20051;-66
2021/03/02 12:12:24;;;;;;;13.20;11.63;;;20.20;69.00;;;;;;5089976;28;20414;-66
2021/03/02 12:14:50;;;;;;;12.65;11.35;;;20.00;68.30;;;;;;5079321;28;20040;-65
2021/03/02 12:17:17;;;;;;;14.50;13.00;;;20.10;68.40;;;;;;5091291;28;20048;-64
2021/03/02 12:19:43;;;;;;;15.63;13.07;;;20.20;67.50;;;;;;5090017;28;20055;-65
2021/03/02 12:22:10;;;;;;;13.00;11.68;;;20.50;67.00;;;;;;5091481;28;20047;-66
2021/03/02 12:24:37;;;;;;;12.38;11.13;;;20.60;66.60;;;;;;5088484;28;20044;-65
2021/03/02 12:27:03;;;;;;;13.50;12.10;;;21.00;65.70;;;;;;5074291;28;20349;-66
2021/03/02 12:29:30;;;;;;;12.98;11.77;;;21.30;65.10;;;;;;5085495;28;20122;-66
2021/03/02 12:31:56;;;;;;;12.02;10.82;;;21.30;63.20;;;;;;5089412;28;20063;-67
2021/03/02 12:34:23;;;;;;;13.07;11.43;;;21.40;63.60;;;;;;5091688;28;20056;-66
2021/03/02 12:36:50;;;;;;;12.10;10.90;;;21.60;63.60;;;;;;5080035;28;20053;-67
2021/03/02 12:39:17;;;;;;;12.75;11.45;;;22.00;62.40;;;;;;5087219;28;20519;-66
2021/03/02 12:41:43;;;;;;;12.40;10.65;;;22.10;61.50;;;;;;5088713;28;20059;-66
2021/03/02 12:44:10;;;;;;;13.02;11.63;;;22.20;60.80;;;;;;5081335;28;20055;-66
2021/03/02 12:46:37;;;;;;;12.35;11.15;;;22.20;60.20;;;;;;5087544;28;20044;-67
2021/03/02 12:49:03;;;;;;;13.93;12.52;;;22.70;59.80;;;;;;5090103;28;20056;-67